sensor_id;sensor_type;location;lat;lon;timestamp;P1;durP1;ratioP1;P2;durP2;ratioP2
75496;SDS011;64074;47.540;19.072;2023-07-24T00:00:44;5.30;;;4.80;;
75496;SDS011;64074;47.540;19.072;2023-07-24T00:03:48;6.10;;;5.10;;
75496;SDS011;64074;47.540;19.072;2023-07-24T00:06:51;7.57;;;5.00;;
75496;SDS011;64074;47.540;19.072;2023-07-24T00:09:55;6.63;;;5.43;;
75496;SDS011;64074;47.540;19.072;2023-07-24T00:12:58;8.48;;;5.50;;
75496;SDS011;64074;47.540;19.072;2023-07-24T00:16:05;6.65;;;4.95;;
75496;SDS011;64074;47.540;19.072;2023-07-24T00:19:13;5.90;;;5.30;;
75496;SDS011;64074;47.540;19.072;2023-07-24T00:22:16;6.33;;;5.27;;
75496;SDS011;64074;47.540;19.072;2023-07-24T00:25:20;6.50;;;5.47;;
75496;SDS011;64074;47.540;19.072;2023-07-24T00:28:23;7.93;;;5.45;;
75496;SDS011;64074;47.540;19.072;2023-07-24T00:31:27;7.13;;;5.68;;
75496;SDS011;64074;47.540;19.072;2023-07-24T00:34:30;7.13;;;5.80;;
75496;SDS011;64074;47.540;19.072;2023-07-24T00:37:34;7.13;;;5.43;;
75496;SDS011;64074;47.540;19.072;2023-07-24T00:40:37;6.50;;;5.37;;
75496;SDS011;64074;47.540;19.072;2023-07-24T00:43:40;6.53;;;5.57;;
75496;SDS011;64074;47.540;19.072;2023-07-24T00:46:44;6.63;;;4.95;;
75496;SDS011;64074;47.540;19.072;2023-07-24T00:49:47;7.00;;;5.18;;
75496;SDS011;64074;47.540;19.072;2023-07-24T00:52:51;6.73;;;5.20;;
75496;SDS011;64074;47.540;19.072;2023-07-24T00:55:55;6.73;;;5.33;;
75496;SDS011;64074;47.540;19.072;2023-07-24T00:58:59;7.90;;;5.00;;
75496;SDS011;64074;47.540;19.072;2023-07-24T01:02:04;8.02;;;5.13;;
75496;SDS011;64074;47.540;19.072;2023-07-24T01:05:07;6.93;;;5.63;;
75496;SDS011;64074;47.540;19.072;2023-07-24T01:08:13;6.15;;;5.55;;
75496;SDS011;64074;47.540;19.072;2023-07-24T01:11:19;6.00;;;5.40;;
75496;SDS011;64074;47.540;19.072;2023-07-24T01:14:39;6.68;;;5.10;;
75496;SDS011;64074;47.540;19.072;2023-07-24T01:18:00;8.40;;;6.03;;
75496;SDS011;64074;47.540;19.072;2023-07-24T01:21:08;8.02;;;5.38;;
75496;SDS011;64074;47.540;19.072;2023-07-24T01:24:24;6.93;;;5.87;;
75496;SDS011;64074;47.540;19.072;2023-07-24T01:27:34;7.30;;;5.40;;
75496;SDS011;64074;47.540;19.072;2023-07-24T01:30:37;8.82;;;5.57;;
75496;SDS011;64074;47.540;19.072;2023-07-24T01:33:40;9.88;;;5.60;;
75496;SDS011;64074;47.540;19.072;2023-07-24T01:36:43;7.22;;;5.43;;
75496;SDS011;64074;47.540;19.072;2023-07-24T01:39:46;6.60;;;5.80;;
75496;SDS011;64074;47.540;19.072;2023-07-24T01:42:51;6.37;;;5.43;;
75496;SDS011;64074;47.540;19.072;2023-07-24T01:45:54;9.98;;;5.75;;
75496;SDS011;64074;47.540;19.072;2023-07-24T01:48:57;6.78;;;5.80;;
75496;SDS011;64074;47.540;19.072;2023-07-24T01:52:00;7.03;;;5.75;;
75496;SDS011;64074;47.540;19.072;2023-07-24T01:55:03;7.00;;;6.00;;
75496;SDS011;64074;47.540;19.072;2023-07-24T01:58:07;9.13;;;5.73;;
75496;SDS011;64074;47.540;19.072;2023-07-24T02:01:10;7.72;;;6.22;;
75496;SDS011;64074;47.540;19.072;2023-07-24T02:04:13;6.68;;;5.90;;
75496;SDS011;64074;47.540;19.072;2023-07-24T02:07:17;7.65;;;5.88;;
75496;SDS011;64074;47.540;19.072;2023-07-24T02:10:19;7.10;;;6.17;;
75496;SDS011;64074;47.540;19.072;2023-07-24T02:13:22;7.07;;;5.80;;
75496;SDS011;64074;47.540;19.072;2023-07-24T02:16:25;7.85;;;5.93;;
75496;SDS011;64074;47.540;19.072;2023-07-24T02:19:28;7.97;;;6.20;;
75496;SDS011;64074;47.540;19.072;2023-07-24T02:22:31;10.57;;;6.15;;
75496;SDS011;64074;47.540;19.072;2023-07-24T02:25:35;7.83;;;5.93;;
75496;SDS011;64074;47.540;19.072;2023-07-24T02:28:39;7.83;;;5.93;;
75496;SDS011;64074;47.540;19.072;2023-07-24T02:31:42;10.63;;;6.53;;
75496;SDS011;64074;47.540;19.072;2023-07-24T02:34:46;7.93;;;5.65;;
75496;SDS011;64074;47.540;19.072;2023-07-24T02:37:48;7.35;;;5.90;;
75496;SDS011;64074;47.540;19.072;2023-07-24T02:40:52;11.63;;;6.10;;
75496;SDS011;64074;47.540;19.072;2023-07-24T02:43:56;8.27;;;6.30;;
75496;SDS011;64074;47.540;19.072;2023-07-24T02:46:59;7.88;;;6.25;;
75496;SDS011;64074;47.540;19.072;2023-07-24T02:50:03;6.75;;;5.72;;
75496;SDS011;64074;47.540;19.072;2023-07-24T02:53:09;9.25;;;5.95;;
75496;SDS011;64074;47.540;19.072;2023-07-24T02:56:12;6.60;;;5.90;;
75496;SDS011;64074;47.540;19.072;2023-07-24T02:59:15;6.47;;;5.77;;
75496;SDS011;64074;47.540;19.072;2023-07-24T03:02:18;7.20;;;6.40;;
75496;SDS011;64074;47.540;19.072;2023-07-24T03:05:20;8.98;;;6.43;;
75496;SDS011;64074;47.540;19.072;2023-07-24T03:08:24;7.95;;;6.20;;
75496;SDS011;64074;47.540;19.072;2023-07-24T03:11:27;8.33;;;6.50;;
75496;SDS011;64074;47.540;19.072;2023-07-24T03:14:31;8.17;;;6.47;;
75496;SDS011;64074;47.540;19.072;2023-07-24T03:17:33;7.30;;;6.55;;
75496;SDS011;64074;47.540;19.072;2023-07-24T03:20:37;9.50;;;6.47;;
75496;SDS011;64074;47.540;19.072;2023-07-24T03:23:41;7.75;;;6.95;;
75496;SDS011;64074;47.540;19.072;2023-07-24T03:26:43;9.63;;;6.97;;
75496;SDS011;64074;47.540;19.072;2023-07-24T03:29:47;9.10;;;6.40;;
75496;SDS011;64074;47.540;19.072;2023-07-24T03:32:50;8.68;;;6.88;;
75496;SDS011;64074;47.540;19.072;2023-07-24T03:35:53;8.65;;;6.97;;
75496;SDS011;64074;47.540;19.072;2023-07-24T03:38:56;7.55;;;6.57;;
75496;SDS011;64074;47.540;19.072;2023-07-24T03:42:00;8.43;;;7.13;;
75496;SDS011;64074;47.540;19.072;2023-07-24T03:45:05;8.83;;;7.00;;
75496;SDS011;64074;47.540;19.072;2023-07-24T03:48:09;10.43;;;8.05;;
75496;SDS011;64074;47.540;19.072;2023-07-24T03:51:12;10.50;;;8.73;;
75496;SDS011;64074;47.540;19.072;2023-07-24T03:54:15;8.82;;;7.80;;
75496;SDS011;64074;47.540;19.072;2023-07-24T03:57:18;11.40;;;7.97;;
75496;SDS011;64074;47.540;19.072;2023-07-24T04:00:22;12.83;;;8.73;;
75496;SDS011;64074;47.540;19.072;2023-07-24T04:03:24;11.85;;;8.30;;
75496;SDS011;64074;47.540;19.072;2023-07-24T04:06:27;9.45;;;8.10;;
75496;SDS011;64074;47.540;19.072;2023-07-24T04:09:32;12.20;;;7.70;;
75496;SDS011;64074;47.540;19.072;2023-07-24T04:12:35;12.03;;;7.93;;
75496;SDS011;64074;47.540;19.072;2023-07-24T04:15:38;11.83;;;8.40;;
75496;SDS011;64074;47.540;19.072;2023-07-24T04:18:41;10.88;;;8.35;;
75496;SDS011;64074;47.540;19.072;2023-07-24T04:21:44;14.77;;;8.10;;
75496;SDS011;64074;47.540;19.072;2023-07-24T04:24:47;14.00;;;9.43;;
75496;SDS011;64074;47.540;19.072;2023-07-24T04:27:51;12.40;;;8.70;;
75496;SDS011;64074;47.540;19.072;2023-07-24T04:30:54;12.87;;;8.70;;
75496;SDS011;64074;47.540;19.072;2023-07-24T04:33:57;13.90;;;8.88;;
75496;SDS011;64074;47.540;19.072;2023-07-24T04:37:00;11.30;;;8.50;;
75496;SDS011;64074;47.540;19.072;2023-07-24T04:40:04;11.82;;;8.27;;
75496;SDS011;64074;47.540;19.072;2023-07-24T04:43:08;14.53;;;9.40;;
75496;SDS011;64074;47.540;19.072;2023-07-24T04:46:11;11.70;;;8.20;;
75496;SDS011;64074;47.540;19.072;2023-07-24T04:49:15;13.15;;;8.82;;
75496;SDS011;64074;47.540;19.072;2023-07-24T04:52:18;12.20;;;9.15;;
75496;SDS011;64074;47.540;19.072;2023-07-24T04:55:22;11.07;;;8.50;;
75496;SDS011;64074;47.540;19.072;2023-07-24T04:58:25;11.83;;;8.53;;
75496;SDS011;64074;47.540;19.072;2023-07-24T05:01:27;10.27;;;8.53;;
75496;SDS011;64074;47.540;19.072;2023-07-24T05:04:30;13.10;;;9.25;;
75496;SDS011;64074;47.540;19.072;2023-07-24T05:07:34;13.25;;;10.02;;
75496;SDS011;64074;47.540;19.072;2023-07-24T05:10:37;11.18;;;9.00;;
75496;SDS011;64074;47.540;19.072;2023-07-24T05:13:40;10.77;;;8.63;;
75496;SDS011;64074;47.540;19.072;2023-07-24T05:16:43;11.13;;;8.60;;
75496;SDS011;64074;47.540;19.072;2023-07-24T05:19:46;12.40;;;8.98;;
75496;SDS011;64074;47.540;19.072;2023-07-24T05:22:49;10.52;;;8.35;;
75496;SDS011;64074;47.540;19.072;2023-07-24T05:26:02;11.77;;;8.55;;
75496;SDS011;64074;47.540;19.072;2023-07-24T05:29:05;12.90;;;9.53;;
75496;SDS011;64074;47.540;19.072;2023-07-24T05:32:09;13.90;;;9.77;;
75496;SDS011;64074;47.540;19.072;2023-07-24T05:35:12;12.82;;;9.60;;
75496;SDS011;64074;47.540;19.072;2023-07-24T05:38:15;14.68;;;9.13;;
75496;SDS011;64074;47.540;19.072;2023-07-24T05:41:18;15.05;;;9.20;;
75496;SDS011;64074;47.540;19.072;2023-07-24T05:44:21;12.00;;;9.27;;
75496;SDS011;64074;47.540;19.072;2023-07-24T05:47:24;13.83;;;8.50;;
75496;SDS011;64074;47.540;19.072;2023-07-24T05:50:27;11.05;;;9.15;;
75496;SDS011;64074;47.540;19.072;2023-07-24T05:53:31;11.52;;;8.60;;
75496;SDS011;64074;47.540;19.072;2023-07-24T05:56:35;12.55;;;9.20;;
75496;SDS011;64074;47.540;19.072;2023-07-24T05:59:41;12.63;;;9.17;;
75496;SDS011;64074;47.540;19.072;2023-07-24T06:02:44;11.70;;;8.77;;
75496;SDS011;64074;47.540;19.072;2023-07-24T06:05:51;14.75;;;8.82;;
75496;SDS011;64074;47.540;19.072;2023-07-24T06:08:57;22.55;;;8.88;;
75496;SDS011;64074;47.540;19.072;2023-07-24T06:12:00;14.98;;;8.55;;
75496;SDS011;64074;47.540;19.072;2023-07-24T06:15:04;11.87;;;8.50;;
75496;SDS011;64074;47.540;19.072;2023-07-24T06:18:09;13.37;;;8.83;;
75496;SDS011;64074;47.540;19.072;2023-07-24T06:21:12;11.68;;;8.82;;
75496;SDS011;64074;47.540;19.072;2023-07-24T06:24:15;11.75;;;9.23;;
75496;SDS011;64074;47.540;19.072;2023-07-24T06:27:18;12.15;;;9.23;;
75496;SDS011;64074;47.540;19.072;2023-07-24T06:30:21;11.53;;;9.20;;
75496;SDS011;64074;47.540;19.072;2023-07-24T06:33:23;13.03;;;8.97;;
75496;SDS011;64074;47.540;19.072;2023-07-24T06:36:27;13.45;;;9.07;;
75496;SDS011;64074;47.540;19.072;2023-07-24T06:39:30;13.00;;;9.40;;
75496;SDS011;64074;47.540;19.072;2023-07-24T06:42:35;11.98;;;8.90;;
75496;SDS011;64074;47.540;19.072;2023-07-24T06:45:40;12.90;;;10.00;;
75496;SDS011;64074;47.540;19.072;2023-07-24T06:48:43;13.03;;;9.50;;
75496;SDS011;64074;47.540;19.072;2023-07-24T06:51:46;11.40;;;9.15;;
75496;SDS011;64074;47.540;19.072;2023-07-24T06:54:50;12.88;;;9.25;;
75496;SDS011;64074;47.540;19.072;2023-07-24T06:57:53;13.30;;;9.32;;
75496;SDS011;64074;47.540;19.072;2023-07-24T07:00:56;12.60;;;9.00;;
75496;SDS011;64074;47.540;19.072;2023-07-24T07:04:01;12.77;;;8.97;;
75496;SDS011;64074;47.540;19.072;2023-07-24T07:07:05;12.63;;;9.77;;
75496;SDS011;64074;47.540;19.072;2023-07-24T07:10:08;11.27;;;9.50;;
75496;SDS011;64074;47.540;19.072;2023-07-24T07:13:11;10.73;;;9.18;;
75496;SDS011;64074;47.540;19.072;2023-07-24T07:16:13;13.83;;;9.37;;
75496;SDS011;64074;47.540;19.072;2023-07-24T07:19:20;14.70;;;10.00;;
75496;SDS011;64074;47.540;19.072;2023-07-24T07:22:22;12.60;;;9.15;;
75496;SDS011;64074;47.540;19.072;2023-07-24T07:25:26;12.35;;;9.35;;
75496;SDS011;64074;47.540;19.072;2023-07-24T07:28:29;21.63;;;10.13;;
75496;SDS011;64074;47.540;19.072;2023-07-24T07:31:32;12.70;;;9.13;;
75496;SDS011;64074;47.540;19.072;2023-07-24T07:34:35;14.43;;;10.10;;
75496;SDS011;64074;47.540;19.072;2023-07-24T07:37:40;16.48;;;9.55;;
75496;SDS011;64074;47.540;19.072;2023-07-24T07:40:44;12.35;;;9.30;;
75496;SDS011;64074;47.540;19.072;2023-07-24T07:43:48;15.55;;;9.20;;
75496;SDS011;64074;47.540;19.072;2023-07-24T07:46:50;13.97;;;9.17;;
75496;SDS011;64074;47.540;19.072;2023-07-24T07:49:53;12.03;;;8.00;;
75496;SDS011;64074;47.540;19.072;2023-07-24T07:52:57;10.65;;;8.75;;
75496;SDS011;64074;47.540;19.072;2023-07-24T07:55:59;10.50;;;7.80;;
75496;SDS011;64074;47.540;19.072;2023-07-24T07:59:02;11.27;;;8.15;;
75496;SDS011;64074;47.540;19.072;2023-07-24T08:02:06;11.88;;;8.02;;
75496;SDS011;64074;47.540;19.072;2023-07-24T08:05:10;11.20;;;8.57;;
75496;SDS011;64074;47.540;19.072;2023-07-24T08:08:23;14.52;;;7.75;;
75496;SDS011;64074;47.540;19.072;2023-07-24T08:11:26;11.55;;;8.57;;
75496;SDS011;64074;47.540;19.072;2023-07-24T08:14:29;11.40;;;8.10;;
75496;SDS011;64074;47.540;19.072;2023-07-24T08:17:33;11.20;;;7.90;;
75496;SDS011;64074;47.540;19.072;2023-07-24T08:20:36;12.73;;;8.40;;
75496;SDS011;64074;47.540;19.072;2023-07-24T08:23:39;11.15;;;7.85;;
75496;SDS011;64074;47.540;19.072;2023-07-24T08:26:44;13.52;;;7.72;;
75496;SDS011;64074;47.540;19.072;2023-07-24T08:29:50;14.15;;;7.88;;
75496;SDS011;64074;47.540;19.072;2023-07-24T08:32:53;10.82;;;7.63;;
75496;SDS011;64074;47.540;19.072;2023-07-24T08:36:06;10.67;;;7.70;;
75496;SDS011;64074;47.540;19.072;2023-07-24T08:39:11;12.25;;;8.68;;
75496;SDS011;64074;47.540;19.072;2023-07-24T08:42:14;17.38;;;8.48;;
75496;SDS011;64074;47.540;19.072;2023-07-24T08:45:16;17.05;;;8.05;;
75496;SDS011;64074;47.540;19.072;2023-07-24T08:48:21;13.87;;;8.93;;
75496;SDS011;64074;47.540;19.072;2023-07-24T08:51:25;10.83;;;8.07;;
75496;SDS011;64074;47.540;19.072;2023-07-24T08:54:29;11.27;;;8.48;;
75496;SDS011;64074;47.540;19.072;2023-07-24T08:57:33;12.95;;;8.55;;
75496;SDS011;64074;47.540;19.072;2023-07-24T09:00:36;10.88;;;8.18;;
75496;SDS011;64074;47.540;19.072;2023-07-24T09:03:40;12.88;;;8.63;;
75496;SDS011;64074;47.540;19.072;2023-07-24T09:06:44;12.30;;;8.57;;
75496;SDS011;64074;47.540;19.072;2023-07-24T09:09:48;13.18;;;8.95;;
75496;SDS011;64074;47.540;19.072;2023-07-24T09:12:51;12.70;;;8.77;;
75496;SDS011;64074;47.540;19.072;2023-07-24T09:15:55;11.73;;;7.85;;
75496;SDS011;64074;47.540;19.072;2023-07-24T09:18:58;13.73;;;8.32;;
75496;SDS011;64074;47.540;19.072;2023-07-24T09:22:15;14.70;;;8.47;;
75496;SDS011;64074;47.540;19.072;2023-07-24T09:25:30;16.55;;;8.63;;
75496;SDS011;64074;47.540;19.072;2023-07-24T09:28:35;11.45;;;8.00;;
75496;SDS011;64074;47.540;19.072;2023-07-24T09:31:38;10.88;;;8.32;;
75496;SDS011;64074;47.540;19.072;2023-07-24T09:34:43;13.50;;;8.88;;
75496;SDS011;64074;47.540;19.072;2023-07-24T09:37:46;12.87;;;8.00;;
75496;SDS011;64074;47.540;19.072;2023-07-24T09:40:52;15.10;;;11.38;;
75496;SDS011;64074;47.540;19.072;2023-07-24T09:43:58;12.20;;;8.20;;
75496;SDS011;64074;47.540;19.072;2023-07-24T09:47:02;11.32;;;8.35;;
75496;SDS011;64074;47.540;19.072;2023-07-24T09:50:26;11.60;;;8.57;;
75496;SDS011;64074;47.540;19.072;2023-07-24T09:56:41;14.43;;;8.38;;
75496;SDS011;64074;47.540;19.072;2023-07-24T09:59:58;11.50;;;8.43;;
75496;SDS011;64074;47.540;19.072;2023-07-24T10:03:06;17.20;;;8.35;;
75496;SDS011;64074;47.540;19.072;2023-07-24T10:06:10;17.03;;;8.93;;
75496;SDS011;64074;47.540;19.072;2023-07-24T10:09:14;15.00;;;10.20;;
75496;SDS011;64074;47.540;19.072;2023-07-24T10:12:17;13.43;;;8.65;;
75496;SDS011;64074;47.540;19.072;2023-07-24T10:15:21;11.82;;;8.25;;
75496;SDS011;64074;47.540;19.072;2023-07-24T10:18:28;12.02;;;8.15;;
75496;SDS011;64074;47.540;19.072;2023-07-24T10:21:32;11.15;;;7.85;;
75496;SDS011;64074;47.540;19.072;2023-07-24T10:24:35;16.10;;;8.80;;
75496;SDS011;64074;47.540;19.072;2023-07-24T10:27:47;13.13;;;9.07;;
75496;SDS011;64074;47.540;19.072;2023-07-24T10:30:54;15.55;;;8.73;;
75496;SDS011;64074;47.540;19.072;2023-07-24T10:34:05;14.32;;;9.27;;
75496;SDS011;64074;47.540;19.072;2023-07-24T10:37:08;15.40;;;9.07;;
75496;SDS011;64074;47.540;19.072;2023-07-24T10:40:20;16.37;;;9.03;;
75496;SDS011;64074;47.540;19.072;2023-07-24T10:43:24;15.13;;;9.68;;
75496;SDS011;64074;47.540;19.072;2023-07-24T10:46:38;14.02;;;9.32;;
75496;SDS011;64074;47.540;19.072;2023-07-24T10:49:48;14.30;;;9.60;;
75496;SDS011;64074;47.540;19.072;2023-07-24T10:52:51;15.15;;;9.38;;
75496;SDS011;64074;47.540;19.072;2023-07-24T10:55:55;16.00;;;9.47;;
75496;SDS011;64074;47.540;19.072;2023-07-24T10:59:04;14.00;;;8.90;;
75496;SDS011;64074;47.540;19.072;2023-07-24T11:02:08;16.88;;;9.10;;
75496;SDS011;64074;47.540;19.072;2023-07-24T11:05:14;13.10;;;8.95;;
75496;SDS011;64074;47.540;19.072;2023-07-24T11:08:20;16.98;;;9.32;;
75496;SDS011;64074;47.540;19.072;2023-07-24T11:11:29;16.13;;;11.00;;
75496;SDS011;64074;47.540;19.072;2023-07-24T11:14:34;12.93;;;9.38;;
75496;SDS011;64074;47.540;19.072;2023-07-24T11:17:47;13.15;;;8.50;;
75496;SDS011;64074;47.540;19.072;2023-07-24T11:20:52;13.43;;;8.73;;
75496;SDS011;64074;47.540;19.072;2023-07-24T11:23:58;14.23;;;8.63;;
75496;SDS011;64074;47.540;19.072;2023-07-24T11:27:08;13.67;;;9.03;;
75496;SDS011;64074;47.540;19.072;2023-07-24T11:30:12;12.25;;;8.20;;
75496;SDS011;64074;47.540;19.072;2023-07-24T11:33:22;15.27;;;8.88;;
75496;SDS011;64074;47.540;19.072;2023-07-24T11:36:26;11.48;;;8.38;;
75496;SDS011;64074;47.540;19.072;2023-07-24T11:39:29;14.63;;;8.57;;
75496;SDS011;64074;47.540;19.072;2023-07-24T11:42:32;10.43;;;8.00;;
75496;SDS011;64074;47.540;19.072;2023-07-24T11:45:41;13.40;;;8.73;;
75496;SDS011;64074;47.540;19.072;2023-07-24T11:48:45;13.90;;;8.00;;
75496;SDS011;64074;47.540;19.072;2023-07-24T11:51:48;12.35;;;7.80;;
75496;SDS011;64074;47.540;19.072;2023-07-24T11:54:58;11.57;;;8.50;;
75496;SDS011;64074;47.540;19.072;2023-07-24T11:58:06;14.50;;;9.00;;
75496;SDS011;64074;47.540;19.072;2023-07-24T12:01:10;12.18;;;8.60;;
75496;SDS011;64074;47.540;19.072;2023-07-24T12:04:15;11.05;;;7.82;;
75496;SDS011;64074;47.540;19.072;2023-07-24T12:07:19;13.75;;;8.60;;
75496;SDS011;64074;47.540;19.072;2023-07-24T12:10:25;11.87;;;8.33;;
75496;SDS011;64074;47.540;19.072;2023-07-24T12:13:32;15.17;;;8.50;;
75496;SDS011;64074;47.540;19.072;2023-07-24T12:16:36;15.73;;;8.75;;
75496;SDS011;64074;47.540;19.072;2023-07-24T12:19:40;11.07;;;8.52;;
75496;SDS011;64074;47.540;19.072;2023-07-24T12:22:43;12.75;;;8.50;;
75496;SDS011;64074;47.540;19.072;2023-07-24T12:25:47;14.25;;;8.95;;
75496;SDS011;64074;47.540;19.072;2023-07-24T12:28:50;16.57;;;8.60;;
75496;SDS011;64074;47.540;19.072;2023-07-24T12:31:53;11.88;;;7.95;;
75496;SDS011;64074;47.540;19.072;2023-07-24T12:34:56;13.15;;;8.55;;
75496;SDS011;64074;47.540;19.072;2023-07-24T12:37:58;14.45;;;8.27;;
75496;SDS011;64074;47.540;19.072;2023-07-24T12:41:01;13.27;;;8.23;;
75496;SDS011;64074;47.540;19.072;2023-07-24T12:44:05;18.97;;;8.67;;
75496;SDS011;64074;47.540;19.072;2023-07-24T12:47:08;16.27;;;8.27;;
75496;SDS011;64074;47.540;19.072;2023-07-24T12:50:11;17.45;;;8.25;;
75496;SDS011;64074;47.540;19.072;2023-07-24T12:53:15;10.13;;;7.90;;
75496;SDS011;64074;47.540;19.072;2023-07-24T12:56:25;16.67;;;7.97;;
75496;SDS011;64074;47.540;19.072;2023-07-24T12:59:35;14.97;;;8.50;;
75496;SDS011;64074;47.540;19.072;2023-07-24T13:03:04;17.60;;;8.50;;
75496;SDS011;64074;47.540;19.072;2023-07-24T13:06:07;17.17;;;8.75;;
75496;SDS011;64074;47.540;19.072;2023-07-24T13:09:10;15.95;;;8.38;;
75496;SDS011;64074;47.540;19.072;2023-07-24T13:12:13;13.40;;;8.50;;
75496;SDS011;64074;47.540;19.072;2023-07-24T13:15:16;15.20;;;8.00;;
75496;SDS011;64074;47.540;19.072;2023-07-24T13:18:20;21.42;;;8.73;;
75496;SDS011;64074;47.540;19.072;2023-07-24T13:21:31;12.98;;;8.20;;
75496;SDS011;64074;47.540;19.072;2023-07-24T13:24:34;12.75;;;8.15;;
75496;SDS011;64074;47.540;19.072;2023-07-24T13:27:38;13.67;;;8.57;;
75496;SDS011;64074;47.540;19.072;2023-07-24T13:30:41;18.17;;;9.00;;
75496;SDS011;64074;47.540;19.072;2023-07-24T13:33:45;13.25;;;9.25;;
75496;SDS011;64074;47.540;19.072;2023-07-24T13:36:48;12.20;;;9.55;;
75496;SDS011;64074;47.540;19.072;2023-07-24T13:39:52;13.20;;;9.23;;
75496;SDS011;64074;47.540;19.072;2023-07-24T13:42:55;19.23;;;9.37;;
75496;SDS011;64074;47.540;19.072;2023-07-24T13:45:58;13.70;;;9.20;;
75496;SDS011;64074;47.540;19.072;2023-07-24T13:49:01;15.43;;;10.13;;
75496;SDS011;64074;47.540;19.072;2023-07-24T13:52:04;31.58;;;10.48;;
75496;SDS011;64074;47.540;19.072;2023-07-24T13:55:08;14.25;;;10.43;;
75496;SDS011;64074;47.540;19.072;2023-07-24T13:58:11;15.90;;;10.77;;
75496;SDS011;64074;47.540;19.072;2023-07-24T14:01:15;15.03;;;10.13;;
75496;SDS011;64074;47.540;19.072;2023-07-24T14:04:18;16.38;;;10.00;;
75496;SDS011;64074;47.540;19.072;2023-07-24T14:07:21;18.73;;;10.77;;
75496;SDS011;64074;47.540;19.072;2023-07-24T14:10:25;17.60;;;10.45;;
75496;SDS011;64074;47.540;19.072;2023-07-24T14:13:28;27.70;;;11.00;;
75496;SDS011;64074;47.540;19.072;2023-07-24T14:16:31;16.00;;;9.80;;
75496;SDS011;64074;47.540;19.072;2023-07-24T14:19:33;17.77;;;10.27;;
75496;SDS011;64074;47.540;19.072;2023-07-24T14:22:36;18.05;;;9.93;;
75496;SDS011;64074;47.540;19.072;2023-07-24T14:25:39;17.02;;;10.10;;
75496;SDS011;64074;47.540;19.072;2023-07-24T14:28:42;18.87;;;10.47;;
75496;SDS011;64074;47.540;19.072;2023-07-24T14:31:46;15.57;;;10.27;;
75496;SDS011;64074;47.540;19.072;2023-07-24T14:34:50;16.85;;;10.55;;
75496;SDS011;64074;47.540;19.072;2023-07-24T14:37:54;19.45;;;11.02;;
75496;SDS011;64074;47.540;19.072;2023-07-24T14:40:56;18.50;;;10.63;;
75496;SDS011;64074;47.540;19.072;2023-07-24T14:44:00;18.00;;;10.90;;
75496;SDS011;64074;47.540;19.072;2023-07-24T14:47:03;19.67;;;9.70;;
75496;SDS011;64074;47.540;19.072;2023-07-24T14:50:07;18.20;;;10.80;;
75496;SDS011;64074;47.540;19.072;2023-07-24T14:53:10;16.30;;;9.90;;
75496;SDS011;64074;47.540;19.072;2023-07-24T14:56:13;20.73;;;10.65;;
75496;SDS011;64074;47.540;19.072;2023-07-24T14:59:17;17.47;;;9.80;;
75496;SDS011;64074;47.540;19.072;2023-07-24T15:02:20;17.20;;;9.33;;
75496;SDS011;64074;47.540;19.072;2023-07-24T15:05:25;16.67;;;10.60;;
75496;SDS011;64074;47.540;19.072;2023-07-24T15:08:27;16.20;;;10.20;;
75496;SDS011;64074;47.540;19.072;2023-07-24T15:11:30;18.48;;;10.55;;
75496;SDS011;64074;47.540;19.072;2023-07-24T15:14:33;16.50;;;10.07;;
75496;SDS011;64074;47.540;19.072;2023-07-24T15:17:37;17.13;;;10.13;;
75496;SDS011;64074;47.540;19.072;2023-07-24T15:20:40;16.30;;;9.95;;
75496;SDS011;64074;47.540;19.072;2023-07-24T15:23:43;18.95;;;9.90;;
75496;SDS011;64074;47.540;19.072;2023-07-24T15:26:46;15.00;;;9.50;;
75496;SDS011;64074;47.540;19.072;2023-07-24T15:29:49;17.13;;;9.27;;
75496;SDS011;64074;47.540;19.072;2023-07-24T15:32:52;21.13;;;10.27;;
75496;SDS011;64074;47.540;19.072;2023-07-24T15:35:55;16.80;;;10.10;;
75496;SDS011;64074;47.540;19.072;2023-07-24T15:38:58;14.38;;;9.25;;
75496;SDS011;64074;47.540;19.072;2023-07-24T15:42:01;15.52;;;10.02;;
75496;SDS011;64074;47.540;19.072;2023-07-24T15:45:05;15.23;;;8.87;;
75496;SDS011;64074;47.540;19.072;2023-07-24T15:48:09;15.57;;;9.60;;
75496;SDS011;64074;47.540;19.072;2023-07-24T15:51:12;16.35;;;9.50;;
75496;SDS011;64074;47.540;19.072;2023-07-24T15:54:16;16.77;;;9.45;;
75496;SDS011;64074;47.540;19.072;2023-07-24T15:57:18;17.17;;;9.90;;
75496;SDS011;64074;47.540;19.072;2023-07-24T16:00:23;16.23;;;9.30;;
75496;SDS011;64074;47.540;19.072;2023-07-24T16:03:27;17.07;;;10.33;;
75496;SDS011;64074;47.540;19.072;2023-07-24T16:06:31;17.38;;;9.85;;
75496;SDS011;64074;47.540;19.072;2023-07-24T16:09:33;14.95;;;9.50;;
75496;SDS011;64074;47.540;19.072;2023-07-24T16:12:37;16.70;;;9.80;;
75496;SDS011;64074;47.540;19.072;2023-07-24T16:15:46;14.40;;;9.20;;
75496;SDS011;64074;47.540;19.072;2023-07-24T16:19:22;16.43;;;9.70;;
75496;SDS011;64074;47.540;19.072;2023-07-24T16:22:58;18.25;;;10.00;;
75496;SDS011;64074;47.540;19.072;2023-07-24T16:26:34;17.70;;;9.82;;
75496;SDS011;64074;47.540;19.072;2023-07-24T16:30:11;18.58;;;9.48;;
75496;SDS011;64074;47.540;19.072;2023-07-24T16:33:48;15.17;;;9.03;;
75496;SDS011;64074;47.540;19.072;2023-07-24T16:37:24;14.43;;;9.53;;
75496;SDS011;64074;47.540;19.072;2023-07-24T16:41:01;17.58;;;10.10;;
75496;SDS011;64074;47.540;19.072;2023-07-24T16:44:37;22.00;;;9.70;;
75496;SDS011;64074;47.540;19.072;2023-07-24T16:48:16;15.27;;;9.15;;
75496;SDS011;64074;47.540;19.072;2023-07-24T16:51:53;14.70;;;9.17;;
75496;SDS011;64074;47.540;19.072;2023-07-24T16:55:31;17.20;;;9.13;;
75496;SDS011;64074;47.540;19.072;2023-07-24T16:59:00;18.75;;;8.90;;
75496;SDS011;64074;47.540;19.072;2023-07-24T17:02:29;11.80;;;8.10;;
75496;SDS011;64074;47.540;19.072;2023-07-24T17:06:06;18.05;;;8.75;;
75496;SDS011;64074;47.540;19.072;2023-07-24T17:09:42;18.77;;;8.40;;
75496;SDS011;64074;47.540;19.072;2023-07-24T17:13:18;15.50;;;8.77;;
75496;SDS011;64074;47.540;19.072;2023-07-24T17:16:54;17.60;;;9.35;;
75496;SDS011;64074;47.540;19.072;2023-07-24T17:20:30;16.38;;;8.40;;
75496;SDS011;64074;47.540;19.072;2023-07-24T17:24:07;15.32;;;8.05;;
75496;SDS011;64074;47.540;19.072;2023-07-24T17:27:43;17.20;;;8.70;;
75496;SDS011;64074;47.540;19.072;2023-07-24T17:31:18;13.67;;;8.10;;
75496;SDS011;64074;47.540;19.072;2023-07-24T17:34:55;15.30;;;8.57;;
75496;SDS011;64074;47.540;19.072;2023-07-24T17:38:30;14.85;;;8.48;;
75496;SDS011;64074;47.540;19.072;2023-07-24T17:42:00;14.27;;;7.80;;
75496;SDS011;64074;47.540;19.072;2023-07-24T17:45:28;16.27;;;8.57;;
75496;SDS011;64074;47.540;19.072;2023-07-24T17:49:04;14.03;;;7.77;;
75496;SDS011;64074;47.540;19.072;2023-07-24T17:52:40;13.00;;;7.90;;
75496;SDS011;64074;47.540;19.072;2023-07-24T17:56:16;16.15;;;8.20;;
75496;SDS011;64074;47.540;19.072;2023-07-24T17:59:45;13.45;;;8.68;;
75496;SDS011;64074;47.540;19.072;2023-07-24T18:03:16;15.10;;;8.00;;
75496;SDS011;64074;47.540;19.072;2023-07-24T18:06:52;13.37;;;8.20;;
75496;SDS011;64074;47.540;19.072;2023-07-24T18:10:29;14.43;;;8.55;;
75496;SDS011;64074;47.540;19.072;2023-07-24T18:14:05;12.95;;;7.72;;
75496;SDS011;64074;47.540;19.072;2023-07-24T18:17:34;13.02;;;8.13;;
75496;SDS011;64074;47.540;19.072;2023-07-24T18:21:03;14.47;;;7.60;;